Time;durP1;ratioP1;P1;durP2;ratioP2;P2;SDS_P1;SDS_P2;PMS_P1;PMS_P2;Temp;Humidity;BMP_temperature;BMP_pressure;BME280_temperature;BME280_humidity;BME280_pressure;Samples;Min_cycle;Max_cycle;Signal;HPM_P1;HPM_P2
2022/01/13 00:00:16;;;;;;;87.90;26.88;;;5.80;99.90;;;;;;5046151;28;20526;-67
2022/01/13 00:02:42;;;;;;;90.88;28.35;;;6.30;99.90;;;;;;5047241;28;20043;-66
2022/01/13 00:05:08;;;;;;;91.13;27.13;;;5.80;99.90;;;;;;5047533;28;20111;-66
2022/01/13 00:07:36;;;;;;;83.80;26.58;;;5.70;99.90;;;;;;5049327;28;20075;-66
2022/01/13 00:10:06;;;;;;;91.43;28.33;;;5.70;99.90;;;;;;5026808;28;20036;-65
2022/01/13 00:12:37;;;;;;;94.05;25.83;;;5.70;99.90;;;;;;5042293;28;20639;-64
2022/01/13 00:15:22;;;;;;;86.47;27.25;;;5.70;99.90;;;;;;5062373;28;20045;-64
2022/01/13 00:23:38;;;;;;;84.57;22.88;;;5.70;99.90;;;;;;5043707;28;20131;-66
2022/01/13 00:25:34;;;;;;;86.75;23.92;;;5.60;99.90;;;;;;5043687;28;20057;-66
2022/01/13 00:28:05;;;;;;;96.15;24.00;;;5.60;99.90;;;;;;5044000;28;20053;-66
2022/01/13 00:30:31;;;;;;;98.75;24.85;;;5.70;99.90;;;;;;5044415;28;20044;-66
2022/01/13 00:32:57;;;;;;;101.82;24.60;;;5.60;99.90;;;;;;5041982;28;20171;-67
2022/01/13 00:35:22;;;;;;;96.60;24.48;;;5.60;99.90;;;;;;5047391;28;20135;-66
2022/01/13 00:37:48;;;;;;;87.78;22.20;;;5.60;99.90;;;;;;5040780;28;20137;-68
2022/01/13 00:40:14;;;;;;;82.68;22.67;;;5.60;99.90;;;;;;5043867;28;20045;-65
2022/01/13 00:42:40;;;;;;;72.70;19.27;;;5.60;99.90;;;;;;5044970;28;20545;-66
2022/01/13 00:45:09;;;;;;;77.65;21.23;;;5.80;99.90;;;;;;5043214;28;20782;-66
2022/01/13 00:47:36;;;;;;;81.20;21.38;;;5.50;99.90;;;;;;5043419;28;20045;-66
2022/01/13 00:50:03;;;;;;;73.72;21.88;;;5.50;99.90;;;;;;5043680;28;20049;-64
2022/01/13 00:52:28;;;;;;;86.72;21.13;;;5.50;99.90;;;;;;5042563;28;20052;-65
2022/01/13 00:54:56;;;;;;;82.60;20.42;;;5.50;99.90;;;;;;5042239;28;20045;-65
2022/01/13 00:57:22;;;;;;;86.15;19.67;;;5.40;99.90;;;;;;5043604;28;20415;-65
2022/01/13 00:59:48;;;;;;;92.15;20.42;;;5.40;99.90;;;;;;5041347;28;20463;-65
2022/01/13 01:02:13;;;;;;;91.57;21.20;;;5.50;99.90;;;;;;5048554;28;20076;-65
2022/01/13 01:04:39;;;;;;;76.25;19.60;;;5.40;99.90;;;;;;5042755;28;20045;-65
2022/01/13 01:07:05;;;;;;;82.65;20.27;;;5.40;99.90;;;;;;5048607;28;20065;-66
2022/01/13 01:09:47;;;;;;;78.97;18.63;;;5.40;99.90;;;;;;5045076;28;20128;-65
2022/01/13 01:12:13;;;;;;;88.45;20.63;;;5.40;99.90;;;;;;5044128;28;20037;-67
2022/01/13 01:14:45;;;;;;;90.82;21.83;;;5.40;99.90;;;;;;5042721;28;20454;-67
2022/01/13 01:17:11;;;;;;;89.20;21.30;;;5.40;99.90;;;;;;5048336;28;20056;-67
2022/01/13 01:19:40;;;;;;;96.78;20.42;;;5.40;99.90;;;;;;5048281;28;20037;-66
2022/01/13 01:24:58;;;;;;;81.60;20.95;;;5.40;99.90;;;;;;5049783;28;20079;-65
2022/01/13 01:27:29;;;;;;;72.43;22.25;;;5.30;99.90;;;;;;5039400;28;20300;-65
2022/01/13 01:30:01;;;;;;;77.63;20.25;;;5.30;99.90;;;;;;5043733;28;20057;-65
2022/01/13 01:32:27;;;;;;;112.43;23.40;;;5.30;99.90;;;;;;5044764;28;20052;-64
2022/01/13 01:34:59;;;;;;;77.22;21.90;;;5.30;99.90;;;;;;5049083;28;20053;-64
2022/01/13 01:37:28;;;;;;;82.38;21.42;;;5.30;99.90;;;;;;5048390;28;20462;-64
2022/01/13 01:39:54;;;;;;;;;;;5.30;99.90;;;;;;5041013;28;20395;-65
2022/01/13 01:42:22;;;;;;;85.80;23.02;;;5.30;99.90;;;;;;5039068;28;20039;-66
2022/01/13 01:44:52;;;;;;;78.07;22.77;;;5.20;99.90;;;;;;5022895;28;20041;-64
2022/01/13 01:47:18;;;;;;;85.00;22.35;;;5.20;99.90;;;;;;5041239;28;20037;-65
2022/01/13 01:49:47;;;;;;;86.45;21.60;;;5.20;99.90;;;;;;5043089;28;20080;-65
2022/01/13 01:52:16;;;;;;;113.25;25.30;;;5.20;99.90;;;;;;5041454;28;20186;-65
2022/01/13 01:54:41;;;;;;;;;;;5.90;99.90;;;;;;5044153;28;20044;-65
2022/01/13 01:57:08;;;;;;;94.80;24.58;;;5.30;99.90;;;;;;5041981;28;19921;-67
2022/01/13 01:59:37;;;;;;;99.78;24.42;;;5.20;99.90;;;;;;5042247;28;20457;-65
2022/01/13 02:02:04;;;;;;;101.75;24.80;;;5.20;99.90;;;;;;5044750;28;20052;-64
2022/01/13 02:04:30;;;;;;;92.88;24.25;;;5.30;99.90;;;;;;5041847;28;20090;-65
2022/01/13 02:06:56;;;;;;;92.80;24.52;;;5.30;99.90;;;;;;5045492;28;20050;-66
2022/01/13 02:09:23;;;;;;;93.43;25.30;;;5.30;99.90;;;;;;5046584;28;20406;-66
2022/01/13 02:11:54;;;;;;;90.82;24.55;;;5.30;99.90;;;;;;5050312;28;20052;-64
2022/01/13 02:17:13;;;;;;;83.78;24.80;;;5.30;99.90;;;;;;5050876;28;20076;-64
2022/01/13 02:19:46;;;;;;;83.97;23.88;;;5.30;99.90;;;;;;5049620;28;20094;-65
2022/01/13 02:22:12;;;;;;;74.60;23.70;;;5.30;99.90;;;;;;5053133;28;20088;-64
2022/01/13 02:24:38;;;;;;;90.93;24.27;;;5.30;99.90;;;;;;5046559;28;20104;-64
2022/01/13 02:27:06;;;;;;;86.68;23.95;;;5.30;99.90;;;;;;5047059;28;20048;-65
2022/01/13 02:29:32;;;;;;;88.70;23.43;;;5.20;99.90;;;;;;5051403;28;20110;-65
2022/01/13 02:31:58;;;;;;;89.13;24.38;;;5.30;99.90;;;;;;5053171;28;20294;-65
2022/01/13 02:34:24;;;;;;;82.00;22.58;;;5.30;99.90;;;;;;5052820;28;20041;-64
2022/01/13 02:36:53;;;;;;;85.72;23.77;;;5.30;99.90;;;;;;5049792;28;20475;-64
2022/01/13 02:39:21;;;;;;;90.45;23.45;;;5.30;99.90;;;;;;5051616;28;20041;-65
2022/01/13 02:41:47;;;;;;;98.97;24.45;;;5.30;99.90;;;;;;5051116;28;20119;-65
2022/01/13 02:44:16;;;;;;;78.30;22.80;;;5.30;99.90;;;;;;5053325;28;20127;-65
2022/01/13 02:49:10;;;;;;;97.63;24.92;;;5.30;99.90;;;;;;5050999;28;20045;-65
2022/01/13 02:51:38;;;;;;;81.03;23.65;;;5.30;99.90;;;;;;5047255;28;20037;-66
2022/01/13 02:54:05;;;;;;;96.25;23.45;;;5.30;99.90;;;;;;5050564;28;20044;-65
2022/01/13 02:56:32;;;;;;;90.30;23.50;;;5.30;99.90;;;;;;5051258;28;20105;-66
2022/01/13 02:58:58;;;;;;;88.13;24.80;;;5.30;99.90;;;;;;5051061;28;20077;-65
2022/01/13 03:01:25;;;;;;;99.22;24.02;;;5.40;99.90;;;;;;5049281;28;20049;-66
2022/01/13 03:03:51;;;;;;;83.75;23.25;;;5.40;99.90;;;;;;5051373;28;20510;-65
2022/01/13 03:06:27;;;;;;;93.07;23.13;;;5.40;99.90;;;;;;5045078;28;20041;-65
2022/01/13 03:08:53;;;;;;;87.03;22.35;;;5.40;99.90;;;;;;5051667;28;20074;-66
2022/01/13 03:11:24;;;;;;;95.30;23.85;;;5.40;99.90;;;;;;5051913;28;20056;-65
2022/01/13 03:13:49;;;;;;;86.70;23.63;;;5.40;99.90;;;;;;5051334;28;20442;-65
2022/01/13 03:16:15;;;;;;;83.05;21.33;;;5.40;99.90;;;;;;5050004;28;20087;-65
2022/01/13 03:18:41;;;;;;;92.22;23.55;;;5.40;99.90;;;;;;5065317;28;20446;-65
2022/01/13 03:21:07;;;;;;;80.80;22.30;;;5.40;99.90;;;;;;5050861;28;20048;-65
2022/01/13 03:23:35;;;;;;;74.35;20.77;;;5.40;99.90;;;;;;5047301;28;20495;-65
2022/01/13 03:26:01;;;;;;;82.70;21.83;;;5.50;99.90;;;;;;5049148;28;20045;-65
2022/01/13 03:28:31;;;;;;;85.47;22.15;;;5.50;99.90;;;;;;5049868;28;20353;-64
2022/01/13 03:31:02;;;;;;;82.82;20.65;;;5.50;99.90;;;;;;5049727;28;20049;-65
2022/01/13 03:33:28;;;;;;;81.43;22.48;;;5.50;99.90;;;;;;5030985;28;20068;-65
2022/01/13 03:35:54;;;;;;;84.30;22.83;;;5.50;99.90;;;;;;5050348;28;20041;-64
2022/01/13 03:38:20;;;;;;;90.47;23.15;;;5.50;99.90;;;;;;5052354;28;20095;-65
2022/01/13 03:40:45;;;;;;;80.40;23.17;;;5.50;99.90;;;;;;5051834;28;20041;-64
2022/01/13 03:43:11;;;;;;;80.55;22.85;;;5.50;99.90;;;;;;5050851;28;20033;-64
2022/01/13 03:45:37;;;;;;;78.47;22.88;;;5.50;99.90;;;;;;5051863;28;20044;-64
2022/01/13 03:48:06;;;;;;;84.70;24.50;;;5.50;99.90;;;;;;5045510;28;20041;-64
2022/01/13 03:50:32;;;;;;;89.32;23.80;;;5.40;99.90;;;;;;5050603;28;20032;-64
2022/01/13 03:53:03;;;;;;;77.72;21.95;;;5.40;99.90;;;;;;5044459;28;20394;-66
2022/01/13 03:55:35;;;;;;;86.65;23.33;;;5.50;99.90;;;;;;5045313;28;20044;-65
2022/01/13 03:58:25;;;;;;;70.75;20.45;;;5.40;99.90;;;;;;5045339;28;20041;-65
2022/01/13 04:00:53;;;;;;;75.82;22.33;;;5.50;99.90;;;;;;5045171;28;20084;-65
2022/01/13 04:03:18;;;;;;;89.15;22.33;;;5.40;99.90;;;;;;5044119;28;20056;-66
2022/01/13 04:06:11;;;;;;;97.75;23.08;;;5.40;99.90;;;;;;5041345;28;20037;-64
2022/01/13 04:08:37;;;;;;;94.85;23.38;;;5.40;99.90;;;;;;5042467;28;20048;-65
2022/01/13 04:11:06;;;;;;;89.30;22.08;;;5.40;99.90;;;;;;5041421;28;20398;-65
2022/01/13 04:16:14;;;;;;;96.28;22.52;;;5.30;99.90;;;;;;5045206;28;20096;-64
2022/01/13 04:18:40;;;;;;;;;;;5.30;99.90;;;;;;5059087;28;20044;-64
2022/01/13 04:21:06;;;;;;;87.75;22.77;;;5.30;99.90;;;;;;5043795;28;19936;-64
2022/01/13 04:23:32;;;;;;;95.00;23.48;;;5.30;99.90;;;;;;5046271;28;20497;-64
2022/01/13 04:25:58;;;;;;;86.95;22.45;;;5.60;99.90;;;;;;5044801;28;20041;-64
2022/01/13 04:28:28;;;;;;;104.75;24.92;;;6.50;99.90;;;;;;5047383;28;20494;-65
2022/01/13 04:31:00;;;;;;;94.63;24.23;;;5.30;99.90;;;;;;5044111;28;20049;-65
2022/01/13 04:33:31;;;;;;;83.30;23.30;;;5.30;99.90;;;;;;5044589;28;20047;-65
2022/01/13 04:35:57;;;;;;;101.65;24.33;;;5.20;99.90;;;;;;5039991;28;20553;-64
2022/01/13 04:38:23;;;;;;;101.70;23.30;;;5.30;99.90;;;;;;5059193;28;20106;-65
2022/01/13 04:40:55;;;;;;;101.50;23.17;;;5.20;99.90;;;;;;5045705;28;20033;-65
2022/01/13 04:43:22;;;;;;;115.47;25.40;;;5.30;99.90;;;;;;5043793;28;20051;-64
2022/01/13 04:45:48;;;;;;;117.82;24.98;;;5.30;99.90;;;;;;5044496;28;20040;-67
2022/01/13 04:48:14;;;;;;;115.28;24.15;;;5.30;99.90;;;;;;5048123;28;20048;-65
2022/01/13 04:50:40;;;;;;;108.13;23.83;;;5.30;99.90;;;;;;5042209;28;20479;-64
2022/01/13 04:53:07;;;;;;;111.03;23.88;;;5.30;99.90;;;;;;5047111;28;20037;-64
2022/01/13 04:55:35;;;;;;;113.10;25.23;;;5.30;99.90;;;;;;5050401;28;20114;-65
2022/01/13 04:58:01;;;;;;;96.82;23.48;;;5.30;99.90;;;;;;5050496;28;20037;-65
2022/01/13 05:00:29;;;;;;;100.90;25.70;;;5.30;99.90;;;;;;5046534;28;20072;-66
2022/01/13 05:02:55;;;;;;;90.22;24.40;;;5.30;99.90;;;;;;5044726;28;20041;-65
2022/01/13 05:05:21;;;;;;;97.25;23.83;;;5.40;99.90;;;;;;5042172;28;20037;-64
2022/01/13 05:07:47;;;;;;;117.68;24.23;;;5.30;99.90;;;;;;5040536;28;20045;-65
2022/01/13 05:10:13;;;;;;;142.55;28.23;;;5.30;99.90;;;;;;5041094;28;20049;-64
2022/01/13 05:12:44;;;;;;;95.80;24.50;;;5.30;99.90;;;;;;5035497;28;20229;-66
2022/01/13 05:15:18;;;;;;;97.10;24.75;;;5.30;99.90;;;;;;5045303;28;20115;-65
2022/01/13 05:20:20;;;;;;;124.15;25.20;;;5.30;99.90;;;;;;5047172;28;20381;-65
2022/01/13 05:22:47;;;;;;;99.03;23.55;;;5.30;99.90;;;;;;5046510;28;20044;-66
2022/01/13 05:25:14;;;;;;;108.70;24.55;;;5.30;99.90;;;;;;5039103;28;20470;-66
2022/01/13 05:27:40;;;;;;;117.28;24.88;;;5.30;99.90;;;;;;5041141;28;20072;-67
2022/01/13 05:30:08;;;;;;;127.35;23.92;;;5.30;99.90;;;;;;5046186;28;20088;-65
2022/01/13 05:32:33;;;;;;;124.22;25.10;;;5.30;99.90;;;;;;5041931;28;20103;-66
2022/01/13 05:34:59;;;;;;;107.00;23.00;;;5.30;99.90;;;;;;5042862;28;20040;-67
2022/01/13 05:37:25;;;;;;;130.30;25.50;;;5.30;99.90;;;;;;5040130;28;20102;-65
2022/01/13 05:39:50;;;;;;;125.72;25.88;;;5.30;99.90;;;;;;5043985;28;20040;-67
2022/01/13 05:42:16;;;;;;;116.25;24.33;;;5.30;99.90;;;;;;5062838;28;20044;-66
2022/01/13 05:44:42;;;;;;;112.20;22.23;;;5.30;99.90;;;;;;5047531;28;20099;-65
2022/01/13 05:47:10;;;;;;;152.90;27.08;;;5.30;99.90;;;;;;5048287;28;20037;-65
2022/01/13 05:49:40;;;;;;;129.80;26.77;;;5.30;99.90;;;;;;5045867;28;20081;-66
2022/01/13 05:52:10;;;;;;;125.78;25.08;;;5.30;99.90;;;;;;5046827;28;20048;-65
2022/01/13 05:54:35;;;;;;;136.32;25.88;;;5.30;99.90;;;;;;5044445;28;20095;-65
2022/01/13 05:57:01;;;;;;;151.25;27.73;;;5.30;99.90;;;;;;5048723;28;20121;-66
2022/01/13 05:59:27;;;;;;;147.77;26.15;;;5.40;99.90;;;;;;5050392;28;20044;-65
2022/01/13 06:01:53;;;;;;;149.48;26.05;;;5.30;99.90;;;;;;5050493;28;20461;-65
2022/01/13 06:04:18;;;;;;;139.63;27.80;;;5.40;99.90;;;;;;5052636;28;20037;-65
2022/01/13 06:06:44;;;;;;;142.70;26.85;;;5.40;99.90;;;;;;5044634;28;20566;-66
2022/01/13 06:09:10;;;;;;;152.50;29.23;;;5.40;99.90;;;;;;5046696;28;20033;-67
2022/01/13 06:11:42;;;;;;;125.32;26.45;;;5.40;99.90;;;;;;5045506;28;20036;-65
2022/01/13 06:14:08;;;;;;;139.50;27.83;;;5.40;99.90;;;;;;5047946;28;20106;-66
2022/01/13 06:16:34;;;;;;;138.23;28.88;;;5.40;99.90;;;;;;5050590;28;20033;-64
2022/01/13 06:19:00;;;;;;;135.68;28.02;;;5.40;99.90;;;;;;5051946;28;20514;-65
2022/01/13 06:21:26;;;;;;;115.03;26.83;;;5.40;99.90;;;;;;5052490;28;20063;-65
2022/01/13 06:23:52;;;;;;;124.80;28.77;;;5.50;99.90;;;;;;5052433;28;20247;-65
2022/01/13 06:26:17;;;;;;;123.13;27.25;;;5.50;99.90;;;;;;5049789;28;20525;-66
2022/01/13 06:28:43;;;;;;;152.77;29.88;;;5.50;99.90;;;;;;5035763;28;20057;-65
2022/01/13 06:31:08;;;;;;;136.23;28.95;;;5.50;99.90;;;;;;5053565;28;20502;-66
2022/01/13 06:33:35;;;;;;;124.80;27.98;;;5.50;99.90;;;;;;5051483;28;20044;-64
2022/01/13 06:36:03;;;;;;;123.40;28.38;;;5.60;99.90;;;;;;5046837;28;20048;-65
2022/01/13 06:38:30;;;;;;;140.65;29.63;;;5.60;99.90;;;;;;5044675;28;20044;-64
2022/01/13 06:40:56;;;;;;;126.57;29.88;;;5.60;99.90;;;;;;5047487;28;20044;-65
2022/01/13 06:43:21;;;;;;;137.90;30.10;;;5.60;99.90;;;;;;5048016;28;20533;-64
2022/01/13 06:45:47;;;;;;;138.85;31.17;;;5.70;99.90;;;;;;5050010;28;20406;-66
2022/01/13 06:48:12;;;;;;;143.32;30.40;;;5.70;99.90;;;;;;5051420;28;20407;-66
2022/01/13 06:50:38;;;;;;;139.07;30.70;;;5.70;99.90;;;;;;5047214;28;20483;-66
2022/01/13 06:53:04;;;;;;;133.27;30.55;;;5.70;99.90;;;;;;5048931;28;20033;-65
2022/01/13 06:55:29;;;;;;;121.63;29.42;;;5.80;99.90;;;;;;5050003;28;20076;-65
2022/01/13 06:57:55;;;;;;;147.63;32.67;;;5.80;99.90;;;;;;5047830;28;20040;-65
2022/01/13 07:00:22;;;;;;;119.70;29.23;;;5.80;99.90;;;;;;5048780;28;20036;-68
2022/01/13 07:02:48;;;;;;;148.25;31.08;;;5.80;99.90;;;;;;5051979;28;20041;-65
2022/01/13 07:05:14;;;;;;;138.43;30.70;;;5.80;99.90;;;;;;5052278;28;20146;-65
2022/01/13 07:07:42;;;;;;;123.43;28.30;;;5.80;99.90;;;;;;5063662;28;20554;-65
2022/01/13 07:10:10;;;;;;;137.07;30.95;;;5.80;99.90;;;;;;5052887;28;20043;-64
2022/01/13 07:12:36;;;;;;;122.30;30.80;;;5.90;99.90;;;;;;5046486;28;20087;-65
2022/01/13 07:15:03;;;;;;;143.52;33.95;;;5.90;99.90;;;;;;5044109;28;20048;-64
2022/01/13 07:17:29;;;;;;;139.05;31.02;;;5.90;99.90;;;;;;5044496;28;20072;-66
2022/01/13 07:19:55;;;;;;;140.57;30.50;;;5.90;99.90;;;;;;5043175;28;20115;-64
2022/01/13 07:22:21;;;;;;;140.73;32.58;;;5.90;99.90;;;;;;5039398;28;20630;-64
2022/01/13 07:24:46;;;;;;;135.30;31.35;;;5.90;99.90;;;;;;5044348;28;20076;-64
2022/01/13 07:27:15;;;;;;;140.25;31.73;;;5.90;99.90;;;;;;5044319;28;21960;-66
2022/01/13 07:29:42;;;;;;;134.88;30.95;;;5.90;99.90;;;;;;5046528;28;20132;-65
2022/01/13 07:32:10;;;;;;;138.52;32.00;;;5.90;99.90;;;;;;5045927;28;20049;-65
2022/01/13 07:34:36;;;;;;;128.07;31.58;;;5.90;99.90;;;;;;5053049;28;20048;-65
2022/01/13 07:37:02;;;;;;;139.48;31.50;;;6.00;99.90;;;;;;5049680;28;20034;-66
2022/01/13 07:39:27;;;;;;;150.38;34.33;;;6.00;99.90;;;;;;5052708;28;20044;-65
2022/01/13 07:41:53;;;;;;;122.32;30.23;;;6.00;99.90;;;;;;5049052;28;20052;-65
2022/01/13 07:44:19;;;;;;;137.02;33.35;;;6.00;99.90;;;;;;5052978;28;20481;-65
2022/01/13 07:46:45;;;;;;;135.48;32.13;;;6.00;99.90;;;;;;5049036;28;20140;-65
2022/01/13 07:49:10;;;;;;;128.60;32.00;;;6.10;99.90;;;;;;5046931;28;20415;-65
2022/01/13 07:51:36;;;;;;;126.97;30.60;;;6.00;99.90;;;;;;5042145;28;20041;-65
2022/01/13 07:54:03;;;;;;;139.48;31.73;;;6.10;99.90;;;;;;5042378;28;20051;-68
2022/01/13 07:56:29;;;;;;;128.63;30.05;;;6.10;99.90;;;;;;5042988;28;20045;-66
2022/01/13 07:58:55;;;;;;;125.75;31.10;;;6.10;99.90;;;;;;5044497;28;20032;-66
2022/01/13 08:01:21;;;;;;;126.93;30.65;;;6.10;99.90;;;;;;5044635;28;20041;-65
2022/01/13 08:03:47;;;;;;;137.77;30.90;;;6.10;99.90;;;;;;5043561;28;20059;-65
2022/01/13 08:06:13;;;;;;;139.02;32.30;;;6.10;99.90;;;;;;5041978;28;20048;-67
2022/01/13 08:08:39;;;;;;;134.40;31.63;;;6.10;99.90;;;;;;5044571;28;20049;-66
2022/01/13 08:11:07;;;;;;;139.10;32.00;;;6.10;99.90;;;;;;5044595;28;20446;-65
2022/01/13 08:13:33;;;;;;;124.68;31.48;;;6.10;99.90;;;;;;5044848;28;20041;-64
2022/01/13 08:16:02;;;;;;;137.32;31.55;;;6.10;99.90;;;;;;5044096;28;20067;-66
2022/01/13 08:21:12;;;;;;;112.63;30.30;;;6.10;99.90;;;;;;5044096;28;20562;-64
2022/01/13 08:23:38;;;;;;;119.55;30.75;;;6.10;99.90;;;;;;5044156;28;20163;-67
2022/01/13 08:26:03;;;;;;;119.97;30.95;;;6.20;99.90;;;;;;5043528;28;20033;-64
2022/01/13 08:28:30;;;;;;;112.93;30.33;;;6.20;99.90;;;;;;5044995;28;20045;-65
2022/01/13 08:30:58;;;;;;;120.65;30.13;;;6.20;99.90;;;;;;5043970;28;20044;-67
2022/01/13 08:33:25;;;;;;;112.78;29.52;;;6.20;99.90;;;;;;5044191;28;20483;-65
2022/01/13 08:35:52;;;;;;;109.60;31.42;;;6.20;99.90;;;;;;5043305;28;20049;-65
2022/01/13 08:38:19;;;;;;;101.50;29.95;;;6.20;99.90;;;;;;5042661;28;20037;-65
2022/01/13 08:40:49;;;;;;;98.57;29.58;;;6.20;99.90;;;;;;5051540;28;20055;-65
2022/01/13 08:43:18;;;;;;;108.95;30.35;;;6.20;99.90;;;;;;5048994;28;20414;-65
2022/01/13 08:45:43;;;;;;;99.63;29.50;;;6.20;99.90;;;;;;5050905;28;20045;-67
2022/01/13 08:48:09;;;;;;;115.00;32.03;;;6.20;99.90;;;;;;5049021;28;20506;-65
2022/01/13 08:50:35;;;;;;;98.43;28.05;;;6.20;99.90;;;;;;5047423;28;20521;-65
2022/01/13 08:53:01;;;;;;;117.43;31.35;;;6.20;99.90;;;;;;5046551;28;20139;-66
2022/01/13 08:55:27;;;;;;;101.13;29.52;;;6.30;99.90;;;;;;5041655;28;20036;-68
2022/01/13 08:57:53;;;;;;;100.63;30.15;;;6.20;99.90;;;;;;5043275;28;20052;-65
2022/01/13 09:00:19;;;;;;;99.95;29.65;;;6.20;99.90;;;;;;5045890;28;20037;-64
2022/01/13 09:02:45;;;;;;;102.10;30.13;;;6.30;99.90;;;;;;5041032;28;20043;-66
2022/01/13 09:05:13;;;;;;;112.85;31.15;;;6.20;99.90;;;;;;5043112;28;20040;-65
2022/01/13 09:07:39;;;;;;;111.85;30.52;;;6.30;99.90;;;;;;5043936;28;20033;-63
2022/01/13 09:10:06;;;;;;;88.60;29.02;;;6.20;99.90;;;;;;5043174;28;20044;-64
2022/01/13 09:12:32;;;;;;;106.95;30.23;;;6.20;99.90;;;;;;5043135;28;20049;-67
2022/01/13 09:15:02;;;;;;;102.43;30.80;;;6.30;99.90;;;;;;5042819;28;20163;-64
2022/01/13 09:17:30;;;;;;;99.20;28.15;;;6.30;99.90;;;;;;5045707;28;20116;-65
2022/01/13 09:19:56;;;;;;;99.88;30.08;;;6.30;99.90;;;;;;5043278;28;20140;-64
2022/01/13 09:22:22;;;;;;;111.97;28.60;;;6.30;99.90;;;;;;5043913;28;20579;-65
2022/01/13 09:24:48;;;;;;;99.13;29.05;;;6.30;99.90;;;;;;5043306;28;20505;-66
2022/01/13 09:27:13;;;;;;;113.50;28.92;;;6.30;99.90;;;;;;5043451;28;20481;-65
2022/01/13 09:29:39;;;;;;;105.07;28.52;;;6.30;99.90;;;;;;5043646;28;20159;-67
2022/01/13 09:32:07;;;;;;;103.28;29.02;;;6.30;99.90;;;;;;5044790;28;20044;-65
2022/01/13 09:34:32;;;;;;;92.18;27.90;;;6.30;99.90;;;;;;5042768;28;20406;-65
2022/01/13 09:36:58;;;;;;;96.57;26.48;;;6.30;99.90;;;;;;5044095;28;20045;-65
2022/01/13 09:39:24;;;;;;;86.88;28.08;;;6.30;99.90;;;;;;5043240;28;20095;-66
2022/01/13 09:41:51;;;;;;;96.40;28.55;;;6.30;99.90;;;;;;5042155;28;20898;-65
2022/01/13 09:44:17;;;;;;;91.27;27.90;;;6.30;99.90;;;;;;5044569;28;20060;-65
2022/01/13 09:46:44;;;;;;;95.40;28.98;;;6.30;99.90;;;;;;5039843;28;20041;-64
2022/01/13 09:49:10;;;;;;;104.80;29.30;;;6.30;99.90;;;;;;5044258;28;20159;-64
2022/01/13 09:51:44;;;;;;;106.25;30.52;;;6.30;99.90;;;;;;5043636;28;20954;-65
2022/01/13 09:54:10;;;;;;;85.68;27.85;;;6.30;99.90;;;;;;5044533;28;20066;-64
2022/01/13 09:56:36;;;;;;;92.03;29.45;;;6.30;99.90;;;;;;5043156;28;20873;-65
2022/01/13 09:59:02;;;;;;;90.63;28.05;;;6.30;99.90;;;;;;5045568;28;20116;-68
2022/01/13 10:01:28;;;;;;;82.90;28.67;;;6.30;99.90;;;;;;5046959;28;20047;-66
2022/01/13 10:03:53;;;;;;;90.03;28.90;;;6.30;99.90;;;;;;5044396;28;20049;-65
2022/01/13 10:06:20;;;;;;;81.40;28.25;;;6.40;99.90;;;;;;5059535;28;20467;-65
2022/01/13 10:08:54;;;;;;;77.43;28.30;;;6.30;99.90;;;;;;5042539;28;20045;-66
2022/01/13 10:11:48;;;;;;;75.55;26.98;;;6.30;99.90;;;;;;5042907;28;20045;-66
2022/01/13 10:16:51;;;;;;;78.85;28.63;;;6.40;99.90;;;;;;5045175;28;20049;-64
2022/01/13 10:19:34;;;;;;;82.97;28.50;;;6.40;99.90;;;;;;5041747;28;20048;-64
2022/01/13 10:22:02;;;;;;;77.50;28.98;;;6.40;99.90;;;;;;5042720;28;21519;-65
2022/01/13 10:24:31;;;;;;;90.38;28.80;;;6.40;99.90;;;;;;5041925;28;20491;-65
2022/01/13 10:27:10;;;;;;;96.78;30.58;;;6.50;99.90;;;;;;5041611;28;20175;-65
2022/01/13 10:29:59;;;;;;;77.75;27.40;;;6.50;99.90;;;;;;5044970;28;20491;-68
2022/01/13 10:32:27;;;;;;;;;;;6.50;99.90;;;;;;5046551;28;20037;-67
2022/01/13 10:35:00;;;;;;;86.55;29.63;;;6.50;99.90;;;;;;5045923;28;20298;-66
2022/01/13 10:37:43;;;;;;;76.15;27.50;;;6.50;99.90;;;;;;5045670;28;20044;-65
2022/01/13 10:40:13;;;;;;;79.00;28.30;;;6.50;99.90;;;;;;5042812;28;20041;-68
2022/01/13 10:45:35;;;;;;;75.93;27.70;;;6.60;99.90;;;;;;5047163;28;20499;-65
2022/01/13 10:48:19;;;;;;;77.85;27.80;;;6.60;99.90;;;;;;5047121;28;20064;-65
2022/01/13 10:51:07;;;;;;;87.88;28.88;;;6.60;99.90;;;;;;5045366;28;21375;-65
2022/01/13 10:53:51;;;;;;;81.68;29.70;;;6.60;99.90;;;;;;5047280;28;20126;-65
2022/01/13 10:56:19;;;;;;;78.07;28.15;;;6.60;99.90;;;;;;5044441;28;20406;-64
2022/01/13 10:58:50;;;;;;;81.05;29.30;;;6.60;99.90;;;;;;5047372;28;20049;-64
2022/01/13 11:01:16;;;;;;;70.85;28.63;;;6.60;99.90;;;;;;5046136;28;20060;-68
2022/01/13 11:03:44;;;;;;;71.65;28.27;;;6.60;99.90;;;;;;5047019;28;20056;-65
2022/01/13 11:06:11;;;;;;;81.18;29.80;;;6.60;99.90;;;;;;5045757;28;20037;-67
2022/01/13 11:08:45;;;;;;;75.43;28.65;;;6.60;99.90;;;;;;5046730;28;20053;-64
2022/01/13 11:11:26;;;;;;;81.50;28.83;;;6.60;99.90;;;;;;5046278;28;20063;-64
2022/01/13 11:13:58;;;;;;;71.70;28.42;;;6.60;99.90;;;;;;5046306;28;20052;-68
2022/01/13 11:16:24;;;;;;;74.97;28.30;;;6.70;99.90;;;;;;5044942;28;20517;-65
2022/01/13 11:18:51;;;;;;;79.80;29.42;;;6.60;99.90;;;;;;5046933;28;20380;-65
2022/01/13 11:21:17;;;;;;;81.07;29.42;;;6.70;99.90;;;;;;5048383;28;20135;-66
2022/01/13 11:23:48;;;;;;;75.65;29.08;;;6.70;99.90;;;;;;5045851;28;20165;-65
2022/01/13 11:26:15;;;;;;;73.47;28.73;;;6.70;99.90;;;;;;5045327;28;20056;-69
2022/01/13 11:28:42;;;;;;;73.43;28.58;;;7.00;99.90;;;;;;5045058;28;20045;-68
2022/01/13 11:31:09;;;;;;;80.10;29.08;;;6.80;99.90;;;;;;5045760;28;20476;-67
2022/01/13 11:33:36;;;;;;;75.72;32.05;;;6.80;99.90;;;;;;5045578;28;20053;-67
2022/01/13 11:36:03;;;;;;;77.93;29.23;;;6.80;99.90;;;;;;5060378;28;20056;-65
2022/01/13 11:38:30;;;;;;;78.35;29.17;;;6.80;99.90;;;;;;5041552;28;20060;-65
2022/01/13 11:41:05;;;;;;;71.00;29.33;;;6.80;99.90;;;;;;5045836;28;20049;-65
2022/01/13 11:43:34;;;;;;;74.53;29.73;;;6.80;99.90;;;;;;5046229;28;20056;-65
2022/01/13 11:46:21;;;;;;;72.53;27.70;;;6.90;99.90;;;;;;5044714;28;20049;-65
2022/01/13 11:48:59;;;;;;;81.10;30.15;;;6.90;99.90;;;;;;5045855;28;20079;-68
2022/01/13 11:51:28;;;;;;;76.82;28.00;;;6.90;99.90;;;;;;5045583;28;20506;-66
2022/01/13 11:53:59;;;;;;;80.93;28.60;;;6.90;99.90;;;;;;5060750;28;20041;-65
2022/01/13 11:56:29;;;;;;;72.20;27.67;;;6.90;99.90;;;;;;5042547;28;20127;-66
2022/01/13 11:58:56;;;;;;;65.47;28.08;;;6.90;99.90;;;;;;5045328;28;20386;-66
2022/01/13 12:01:25;;;;;;;66.38;27.30;;;6.90;99.90;;;;;;5044262;28;20041;-65
2022/01/13 12:03:59;;;;;;;60.05;26.60;;;6.90;99.90;;;;;;5046126;28;20103;-66
2022/01/13 12:06:44;;;;;;;74.50;27.90;;;6.90;99.90;;;;;;5044520;28;20040;-66
2022/01/13 12:09:32;;;;;;;61.58;27.77;;;6.90;99.90;;;;;;5044394;28;20057;-66
2022/01/13 12:11:59;;;;;;;62.50;27.05;;;6.90;99.90;;;;;;5045411;28;20041;-68
2022/01/13 12:14:25;;;;;;;52.22;25.48;;;6.90;99.90;;;;;;5045418;28;20528;-66
2022/01/13 12:16:54;;;;;;;61.75;25.98;;;7.00;99.90;;;;;;5047503;28;20087;-65
2022/01/13 12:19:32;;;;;;;64.22;28.15;;;7.00;99.90;;;;;;5043457;28;20512;-67
2022/01/13 12:22:09;;;;;;;55.25;26.42;;;7.00;99.90;;;;;;5042650;28;20040;-66
2022/01/13 12:24:47;;;;;;;64.45;27.30;;;7.00;99.90;;;;;;5044213;28;20055;-65
2022/01/13 12:27:13;;;;;;;65.75;24.20;;;7.00;99.90;;;;;;5042420;28;20499;-66
2022/01/13 12:30:07;;;;;;;52.38;23.63;;;7.00;99.90;;;;;;5043115;28;20140;-67
2022/01/13 12:32:35;;;;;;;50.22;23.50;;;7.00;99.90;;;;;;5045076;28;20056;-65
2022/01/13 12:35:02;;;;;;;;;;;7.00;99.90;;;;;;5044114;28;20044;-65
2022/01/13 12:37:29;;;;;;;55.13;24.75;;;7.00;99.90;;;;;;5046078;28;19920;-69
2022/01/13 12:40:17;;;;;;;63.33;25.55;;;7.00;99.90;;;;;;5044190;28;20045;-68
2022/01/13 12:42:53;;;;;;;58.10;25.42;;;7.10;99.90;;;;;;5058392;28;20052;-65
2022/01/13 12:45:33;;;;;;;56.00;26.90;;;7.10;99.90;;;;;;5044756;28;20487;-65
2022/01/13 12:48:03;;;;;;;58.00;24.98;;;7.10;99.90;;;;;;5044827;28;20045;-67
2022/01/13 12:50:36;;;;;;;52.70;23.20;;;7.10;99.90;;;;;;5043392;28;20119;-66
2022/01/13 12:53:09;;;;;;;55.97;25.02;;;7.20;99.90;;;;;;5044143;28;20064;-66
2022/01/13 12:55:36;;;;;;;52.30;24.90;;;7.20;99.90;;;;;;5057316;28;20095;-66
2022/01/13 12:58:03;;;;;;;52.00;24.23;;;7.30;99.90;;;;;;5043332;28;20505;-65
2022/01/13 13:00:29;;;;;;;55.47;25.48;;;7.30;99.90;;;;;;5038494;28;20033;-67
2022/01/13 13:02:58;;;;;;;53.70;25.15;;;7.40;99.90;;;;;;5044500;28;20430;-67
2022/01/13 13:05:39;;;;;;;50.00;23.02;;;7.40;99.90;;;;;;5042398;28;20438;-67
2022/01/13 13:08:07;;;;;;;47.47;24.30;;;7.40;99.90;;;;;;5044104;28;20523;-68